Time;durP1;ratioP1;P1;durP2;ratioP2;P2;SDS_P1;SDS_P2;PMS_P1;PMS_P2;Temp;Humidity;BMP_temperature;BMP_pressure;BME280_temperature;BME280_humidity;BME280_pressure;Samples;Min_cycle;Max_cycle;Signal;HPM_P1;HPM_P2
2022/01/06 00:00:00;;;;;;;26.95;4.63;;;5.20;99.90;;;;;;6184638;23;20017;-86
2022/01/06 00:02:26;;;;;;;24.10;3.85;;;5.20;99.90;;;;;;6158994;23;20025;-84
2022/01/06 00:04:52;;;;;;;21.40;4.10;;;5.30;99.90;;;;;;6156887;23;20023;-86
2022/01/06 00:07:18;;;;;;;22.95;4.55;;;5.30;99.90;;;;;;6159181;23;20036;-85
2022/01/06 00:09:47;;;;;;;23.10;4.28;;;5.30;99.90;;;;;;6186508;23;20028;-84
2022/01/06 00:12:15;;;;;;;23.75;4.53;;;5.30;99.90;;;;;;6186520;23;20025;-86
2022/01/06 00:17:47;;;;;;;21.77;4.07;;;5.40;99.90;;;;;;6185081;23;20453;-86
2022/01/06 00:25:38;;;;;;;12.23;2.17;;;5.50;99.90;;;;;;6194781;23;20021;-84
2022/01/06 00:28:04;;;;;;;14.30;2.78;;;5.40;99.90;;;;;;6165957;23;20073;-87
2022/01/06 00:30:31;;;;;;;19.42;2.80;;;5.40;99.90;;;;;;6163484;23;20025;-87
2022/01/06 00:32:57;;;;;;;18.65;3.08;;;5.30;99.90;;;;;;6135056;23;20025;-85
2022/01/06 00:35:23;;;;;;;24.55;3.63;;;5.20;99.90;;;;;;6159746;23;20468;-86
2022/01/06 00:37:49;;;;;;;16.92;3.63;;;5.20;99.90;;;;;;6159729;23;20416;-85
2022/01/06 00:40:17;;;;;;;17.50;3.50;;;5.20;99.90;;;;;;6110485;23;20021;-85
2022/01/06 00:42:43;;;;;;;31.70;4.80;;;5.20;99.90;;;;;;6159101;23;20025;-86
2022/01/06 00:45:09;;;;;;;20.20;4.53;;;5.20;99.90;;;;;;6158215;23;20028;-86
2022/01/06 00:47:35;;;;;;;37.67;5.90;;;5.20;99.90;;;;;;6184679;23;20349;-86
2022/01/06 00:50:01;;;;;;;19.63;3.25;;;5.20;99.90;;;;;;6159963;23;20096;-86
2022/01/06 00:52:27;;;;;;;20.88;3.65;;;5.20;99.90;;;;;;6159410;23;20025;-85
2022/01/06 00:54:52;;;;;;;24.80;4.20;;;5.20;99.90;;;;;;6133757;23;20100;-85
2022/01/06 00:57:20;;;;;;;25.00;4.88;;;5.20;99.90;;;;;;6159535;23;20025;-85
2022/01/06 00:59:46;;;;;;;21.10;3.42;;;5.20;99.90;;;;;;6160017;23;20025;-86
2022/01/06 01:02:11;;;;;;;16.63;3.45;;;5.20;99.90;;;;;;6184255;23;20032;-85
2022/01/06 01:04:37;;;;;;;26.15;4.88;;;5.20;99.90;;;;;;6186261;23;20112;-85
2022/01/06 01:07:03;;;;;;;20.05;3.55;;;5.20;99.90;;;;;;6163550;23;20021;-86
2022/01/06 01:09:30;;;;;;;17.15;4.00;;;5.20;99.90;;;;;;6163380;23;20025;-85
2022/01/06 01:12:02;;;;;;;19.45;3.08;;;5.20;99.90;;;;;;6184877;23;20385;-87
2022/01/06 01:14:31;;;;;;;26.45;3.55;;;5.20;99.90;;;;;;6163929;23;20096;-86
2022/01/06 01:17:00;;;;;;;16.05;3.25;;;5.20;99.90;;;;;;6141232;23;20027;-85
2022/01/06 01:19:30;;;;;;;21.63;3.28;;;5.10;99.90;;;;;;6160917;23;20039;-86
2022/01/06 01:21:57;;;;;;;22.65;3.13;;;5.10;99.90;;;;;;6133659;23;20021;-86
2022/01/06 01:24:23;;;;;;;16.67;4.15;;;5.10;99.90;;;;;;6158479;23;20552;-86
2022/01/06 01:26:49;;;;;;;16.25;2.40;;;5.00;99.90;;;;;;6185524;23;20453;-85
2022/01/06 01:29:17;;;;;;;19.27;3.03;;;5.00;99.90;;;;;;6183977;23;20044;-85
2022/01/06 01:31:50;;;;;;;28.67;3.38;;;5.00;99.90;;;;;;6183420;23;20044;-85
2022/01/06 01:34:22;;;;;;;38.10;5.72;;;5.00;99.90;;;;;;6158854;23;20024;-85
2022/01/06 01:36:48;;;;;;;18.02;3.15;;;4.90;99.90;;;;;;6134030;23;20361;-85
2022/01/06 01:39:13;;;;;;;17.80;3.00;;;5.00;99.90;;;;;;6133922;23;20104;-86
2022/01/06 01:41:39;;;;;;;14.70;3.28;;;4.90;99.90;;;;;;6159216;23;20096;-85
2022/01/06 01:44:12;;;;;;;16.73;2.40;;;4.90;99.90;;;;;;6184799;23;20083;-84
2022/01/06 01:46:43;;;;;;;15.93;2.92;;;4.90;99.90;;;;;;6135071;23;20028;-84
2022/01/06 01:51:37;;;;;;;14.95;2.17;;;4.90;99.90;;;;;;6115752;23;20017;-85
2022/01/06 01:54:03;;;;;;;14.50;3.22;;;4.90;99.90;;;;;;6184047;23;20107;-86
2022/01/06 01:56:30;;;;;;;17.35;3.00;;;4.90;99.90;;;;;;6158647;23;20025;-86
2022/01/06 01:58:56;;;;;;;22.52;3.25;;;4.90;99.90;;;;;;6183554;23;20461;-86
2022/01/06 02:01:22;;;;;;;17.23;3.53;;;5.00;99.90;;;;;;6158849;23;20545;-86
2022/01/06 02:03:47;;;;;;;14.85;3.50;;;5.00;99.90;;;;;;6164214;23;20021;-85
2022/01/06 02:06:19;;;;;;;16.88;3.08;;;5.00;99.90;;;;;;6189230;23;20017;-85
2022/01/06 02:08:45;;;;;;;21.13;3.40;;;5.00;99.90;;;;;;6157258;23;20484;-84
2022/01/06 02:11:11;;;;;;;21.38;3.10;;;5.00;99.90;;;;;;6158073;23;20044;-85
2022/01/06 02:13:54;;;;;;;16.27;2.67;;;4.90;99.90;;;;;;6158300;23;20501;-85
2022/01/06 02:16:26;;;;;;;18.38;3.17;;;4.90;99.90;;;;;;6151830;23;20100;-85
2022/01/06 02:18:53;;;;;;;25.10;3.33;;;4.80;99.90;;;;;;6158998;23;20021;-86
2022/01/06 02:21:20;;;;;;;19.58;2.80;;;4.70;99.90;;;;;;6159334;23;20025;-86
2022/01/06 02:23:46;;;;;;;21.88;4.82;;;4.70;99.90;;;;;;6166325;23;20150;-87
2022/01/06 02:26:13;;;;;;;18.25;2.70;;;4.70;99.90;;;;;;6161119;23;20025;-86
2022/01/06 02:28:40;;;;;;;25.23;3.85;;;4.70;99.90;;;;;;6158260;23;20032;-86
2022/01/06 02:31:06;;;;;;;21.30;3.85;;;4.70;99.90;;;;;;6158914;23;20340;-85
2022/01/06 02:33:34;;;;;;;24.58;4.30;;;4.70;99.90;;;;;;6158342;23;20052;-86
2022/01/06 02:35:59;;;;;;;20.38;3.85;;;4.70;99.90;;;;;;6182866;23;20021;-85
2022/01/06 02:38:25;;;;;;;18.08;2.80;;;4.70;99.90;;;;;;6185424;23;20310;-85
2022/01/06 02:40:52;;;;;;;19.75;2.65;;;4.70;99.90;;;;;;6185096;23;20024;-86
2022/01/06 02:43:21;;;;;;;15.35;3.25;;;4.70;99.90;;;;;;6159351;23;20032;-86
2022/01/06 02:45:48;;;;;;;29.92;4.78;;;4.70;99.90;;;;;;6190423;23;20108;-85
2022/01/06 02:48:15;;;;;;;17.55;3.72;;;4.80;99.90;;;;;;6145048;23;20025;-86
2022/01/06 02:50:49;;;;;;;17.10;3.45;;;4.80;99.90;;;;;;6163088;23;20538;-85
2022/01/06 02:53:21;;;;;;;22.50;2.72;;;4.80;99.90;;;;;;6183165;23;20040;-84
2022/01/06 02:55:54;;;;;;;18.98;4.05;;;4.80;99.90;;;;;;6158242;23;20472;-85
2022/01/06 02:58:21;;;;;;;28.15;3.70;;;4.80;99.90;;;;;;6191070;23;20052;-85
2022/01/06 03:00:48;;;;;;;17.23;4.97;;;4.80;99.90;;;;;;6160862;23;20052;-85
2022/01/06 03:03:14;;;;;;;19.02;3.58;;;4.70;99.90;;;;;;6184275;23;20032;-86
2022/01/06 03:05:40;;;;;;;18.38;3.30;;;4.70;99.90;;;;;;6184631;23;20021;-87
2022/01/06 03:08:06;;;;;;;18.65;4.32;;;4.70;99.90;;;;;;6157851;23;20460;-86
2022/01/06 03:10:36;;;;;;;23.45;3.20;;;4.60;99.90;;;;;;6184684;23;20032;-86
2022/01/06 03:13:03;;;;;;;21.33;4.05;;;4.70;99.90;;;;;;6134550;23;20060;-85
2022/01/06 03:15:29;;;;;;;30.85;6.45;;;4.60;99.90;;;;;;6184243;23;20457;-85
2022/01/06 03:17:57;;;;;;;19.20;3.75;;;4.60;99.90;;;;;;6158240;23;20120;-85
2022/01/06 03:20:25;;;;;;;24.73;4.10;;;4.60;99.90;;;;;;6157692;23;20028;-85
2022/01/06 03:22:56;;;;;;;29.67;4.55;;;4.60;99.90;;;;;;6182806;23;20075;-86
2022/01/06 03:25:23;;;;;;;18.23;3.35;;;4.60;99.90;;;;;;6184254;23;20064;-86
2022/01/06 03:27:49;;;;;;;29.08;4.20;;;4.50;99.90;;;;;;6133880;23;20060;-86
2022/01/06 03:30:18;;;;;;;26.20;5.57;;;4.50;99.90;;;;;;6187843;23;20056;-87
2022/01/06 03:32:44;;;;;;;15.40;3.25;;;4.50;99.90;;;;;;6193625;23;20028;-86
2022/01/06 03:35:12;;;;;;;20.55;4.53;;;4.50;99.90;;;;;;6163935;23;20029;-87
2022/01/06 03:37:39;;;;;;;19.05;3.20;;;4.60;99.90;;;;;;6192952;23;20084;-86
2022/01/06 03:40:07;;;;;;;20.92;3.47;;;4.50;99.90;;;;;;6167607;23;20025;-86
2022/01/06 03:42:34;;;;;;;18.27;3.85;;;4.50;99.90;;;;;;6133647;23;20544;-87
2022/01/06 03:45:00;;;;;;;27.48;4.45;;;4.50;99.90;;;;;;6158154;23;20025;-85
2022/01/06 03:47:26;;;;;;;18.42;4.35;;;4.50;99.90;;;;;;6182700;23;20458;-87
2022/01/06 03:49:52;;;;;;;28.58;4.65;;;4.40;99.90;;;;;;6133767;23;20025;-86
2022/01/06 03:52:18;;;;;;;23.73;6.03;;;4.30;99.90;;;;;;6158464;23;20044;-87
2022/01/06 03:54:44;;;;;;;25.48;5.47;;;4.30;99.90;;;;;;6157564;23;20087;-85
2022/01/06 03:57:09;;;;;;;20.85;3.85;;;4.30;99.90;;;;;;6133054;23;20025;-86
2022/01/06 03:59:35;;;;;;;28.23;5.32;;;4.20;99.90;;;;;;6157889;23;20357;-85
2022/01/06 04:02:02;;;;;;;27.25;4.85;;;4.20;99.90;;;;;;6184813;23;20028;-86
2022/01/06 04:04:28;;;;;;;27.40;6.75;;;4.10;99.90;;;;;;6158149;23;20025;-86
2022/01/06 04:06:54;;;;;;;33.78;5.45;;;4.10;99.90;;;;;;6183200;23;20177;-86
2022/01/06 04:09:20;;;;;;;29.90;4.63;;;4.10;99.90;;;;;;6162197;23;20169;-86
2022/01/06 04:11:46;;;;;;;26.02;4.00;;;4.10;99.90;;;;;;6186815;23;20072;-86
2022/01/06 04:14:11;;;;;;;26.77;4.47;;;4.00;99.90;;;;;;6158554;23;20021;-86
2022/01/06 04:16:39;;;;;;;22.65;4.03;;;4.00;99.90;;;;;;6159772;23;20021;-86
2022/01/06 04:19:06;;;;;;;23.42;4.18;;;4.00;99.90;;;;;;6163617;23;20096;-85
2022/01/06 04:21:32;;;;;;;23.48;3.78;;;4.00;99.90;;;;;;6195675;23;20048;-85
2022/01/06 04:23:57;;;;;;;29.65;7.65;;;4.00;99.90;;;;;;6190510;23;20028;-86
2022/01/06 04:26:23;;;;;;;19.85;3.80;;;4.00;99.90;;;;;;6157712;23;20092;-85
2022/01/06 04:28:53;;;;;;;24.20;4.25;;;3.90;99.90;;;;;;6133664;23;20035;-86
2022/01/06 04:31:18;;;;;;;28.98;3.72;;;3.90;99.90;;;;;;6185386;23;20028;-86
2022/01/06 04:33:44;;;;;;;24.40;3.45;;;3.80;99.90;;;;;;6159330;23;20021;-86
2022/01/06 04:36:10;;;;;;;31.00;6.25;;;3.80;99.90;;;;;;6184405;23;20029;-86
2022/01/06 04:38:36;;;;;;;22.75;4.85;;;3.70;99.90;;;;;;6134682;23;20471;-87
2022/01/06 04:41:03;;;;;;;26.77;4.43;;;3.70;99.90;;;;;;6135387;23;20319;-86
2022/01/06 04:43:50;;;;;;;29.35;5.45;;;3.70;99.90;;;;;;6135140;23;20052;-86
2022/01/06 04:46:19;;;;;;;22.02;6.35;;;3.60;99.90;;;;;;6159752;23;20021;-86
2022/01/06 04:48:45;;;;;;;19.40;3.60;;;3.60;99.90;;;;;;6184813;23;20513;-86
2022/01/06 04:51:10;;;;;;;24.85;4.57;;;3.70;99.90;;;;;;6138127;23;20109;-85
2022/01/06 04:53:36;;;;;;;24.73;5.05;;;3.60;99.90;;;;;;6186751;23;20021;-86
2022/01/06 04:56:02;;;;;;;34.17;6.38;;;3.60;99.90;;;;;;6159874;23;20053;-86
2022/01/06 04:58:28;;;;;;;27.33;3.65;;;3.70;99.90;;;;;;6159358;23;20025;-86
2022/01/06 05:00:55;;;;;;;29.90;4.32;;;3.70;99.90;;;;;;6159410;23;20052;-86
2022/01/06 05:03:20;;;;;;;23.88;4.28;;;3.70;99.90;;;;;;6134175;23;20033;-86
2022/01/06 05:05:46;;;;;;;20.25;3.22;;;3.70;99.90;;;;;;6159605;23;20453;-86
2022/01/06 05:08:12;;;;;;;25.85;3.35;;;3.70;99.90;;;;;;6159399;23;20090;-86
2022/01/06 05:10:38;;;;;;;18.45;2.85;;;3.70;99.90;;;;;;6159149;23;20021;-86
2022/01/06 05:13:03;;;;;;;18.80;3.50;;;3.70;99.90;;;;;;6135644;23;20025;-86
2022/01/06 05:15:29;;;;;;;23.35;3.25;;;3.70;99.90;;;;;;6186476;23;20021;-86
2022/01/06 05:17:55;;;;;;;31.80;5.55;;;3.60;99.90;;;;;;6186136;23;20032;-85
2022/01/06 05:20:25;;;;;;;31.35;4.90;;;3.60;99.90;;;;;;6159389;23;20116;-87
2022/01/06 05:22:55;;;;;;;18.95;3.20;;;3.60;99.90;;;;;;6159676;23;20025;-86
2022/01/06 05:25:25;;;;;;;27.17;4.25;;;3.60;99.90;;;;;;6187706;23;20100;-86
2022/01/06 05:27:51;;;;;;;23.13;4.25;;;3.60;99.90;;;;;;6186296;23;20083;-86
2022/01/06 05:30:17;;;;;;;32.75;4.28;;;3.50;99.90;;;;;;6134880;23;20756;-86
2022/01/06 05:32:43;;;;;;;19.52;3.38;;;3.50;99.90;;;;;;6184132;23;20025;-86
2022/01/06 05:35:09;;;;;;;18.55;4.07;;;3.50;99.90;;;;;;6135883;23;20053;-86
2022/01/06 05:37:38;;;;;;;40.38;5.05;;;3.50;99.90;;;;;;6141157;23;20056;-86
2022/01/06 05:40:05;;;;;;;30.00;4.80;;;3.40;99.90;;;;;;6168915;23;20021;-86
2022/01/06 05:42:31;;;;;;;24.80;3.63;;;3.50;99.90;;;;;;6158347;23;20021;-86
2022/01/06 05:44:56;;;;;;;26.48;4.60;;;3.40;99.90;;;;;;6185532;23;20032;-86
2022/01/06 05:47:22;;;;;;;20.55;3.75;;;3.50;99.90;;;;;;6185497;23;20757;-86
2022/01/06 05:49:48;;;;;;;23.92;4.50;;;3.40;99.90;;;;;;6185368;23;20071;-86
2022/01/06 05:52:14;;;;;;;22.63;4.85;;;3.40;99.90;;;;;;6183599;23;20029;-86
2022/01/06 05:54:40;;;;;;;26.15;5.30;;;3.40;99.90;;;;;;6185136;23;20064;-86
2022/01/06 05:57:13;;;;;;;30.83;5.30;;;3.40;99.90;;;;;;6159019;23;20020;-86
2022/01/06 05:59:39;;;;;;;27.10;5.90;;;3.40;99.90;;;;;;6136383;23;20036;-85
2022/01/06 06:02:08;;;;;;;24.90;4.80;;;3.40;99.90;;;;;;6165237;23;20021;-86
2022/01/06 06:04:38;;;;;;;19.23;4.35;;;3.40;99.90;;;;;;6164497;23;20036;-85
2022/01/06 06:07:03;;;;;;;22.10;4.65;;;3.40;99.90;;;;;;6111004;23;20027;-86
2022/01/06 06:09:29;;;;;;;22.55;4.00;;;3.30;99.90;;;;;;6158731;23;20056;-85
2022/01/06 06:11:55;;;;;;;28.88;6.38;;;3.30;99.90;;;;;;6158415;23;20457;-85
2022/01/06 06:14:21;;;;;;;22.70;3.72;;;3.30;99.90;;;;;;6110405;23;20032;-86
2022/01/06 06:16:47;;;;;;;24.13;5.03;;;3.20;99.90;;;;;;6159438;23;20021;-85
2022/01/06 06:19:12;;;;;;;27.50;4.18;;;3.20;99.90;;;;;;6159519;23;20025;-85
2022/01/06 06:21:38;;;;;;;24.15;4.03;;;3.20;99.90;;;;;;6159099;23;20039;-87
2022/01/06 06:24:05;;;;;;;21.25;5.22;;;3.20;99.90;;;;;;6159655;23;20086;-86
2022/01/06 06:26:32;;;;;;;29.52;4.47;;;3.20;99.90;;;;;;6186173;23;20028;-86
2022/01/06 06:28:58;;;;;;;34.13;6.78;;;3.10;99.90;;;;;;6190274;23;20025;-87
2022/01/06 06:31:24;;;;;;;29.15;5.97;;;3.10;99.90;;;;;;6146534;23;20017;-86
2022/01/06 06:33:50;;;;;;;30.98;5.57;;;3.00;99.90;;;;;;6193721;23;20032;-85
2022/01/06 06:36:16;;;;;;;25.08;4.25;;;3.00;99.90;;;;;;6195888;23;20052;-85
2022/01/06 06:38:41;;;;;;;22.52;6.13;;;3.00;99.90;;;;;;6170425;23;20055;-86
2022/01/06 06:41:07;;;;;;;30.38;5.57;;;3.00;99.90;;;;;;6159061;23;20017;-86
2022/01/06 06:43:33;;;;;;;41.60;6.32;;;3.00;99.90;;;;;;6184483;23;20021;-85
2022/01/06 06:45:59;;;;;;;37.60;7.47;;;3.00;99.90;;;;;;6157798;23;20021;-85
2022/01/06 06:48:25;;;;;;;28.65;5.68;;;3.00;99.90;;;;;;6158034;23;20361;-85
2022/01/06 06:50:51;;;;;;;29.80;5.65;;;3.00;99.90;;;;;;6158067;23;20043;-83
2022/01/06 06:53:17;;;;;;;32.72;5.15;;;2.90;99.90;;;;;;6133055;23;20480;-85
2022/01/06 06:55:43;;;;;;;30.10;4.13;;;2.90;99.90;;;;;;6158105;23;20396;-85
2022/01/06 06:58:09;;;;;;;29.83;6.40;;;2.90;99.90;;;;;;6182854;23;20535;-86
2022/01/06 07:00:34;;;;;;;26.92;4.53;;;2.80;99.90;;;;;;6184473;23;20021;-85
2022/01/06 07:03:00;;;;;;;27.38;5.18;;;2.80;99.90;;;;;;6184392;23;20119;-86
2022/01/06 07:05:27;;;;;;;51.78;6.63;;;2.90;99.90;;;;;;6158061;23;20028;-86
2022/01/06 07:07:54;;;;;;;26.13;3.20;;;2.90;99.90;;;;;;6158569;23;20021;-86
2022/01/06 07:10:20;;;;;;;22.27;3.30;;;3.00;99.90;;;;;;6188567;23;20044;-85
2022/01/06 07:12:49;;;;;;;29.58;5.57;;;3.00;99.90;;;;;;6182701;23;20032;-85
2022/01/06 07:15:15;;;;;;;24.67;5.03;;;2.90;99.90;;;;;;6158411;23;20028;-86
2022/01/06 07:17:41;;;;;;;32.72;5.25;;;3.00;99.90;;;;;;6183584;23;20473;-86
2022/01/06 07:20:08;;;;;;;22.83;4.15;;;3.00;99.90;;;;;;6132653;23;20021;-86
2022/01/06 07:22:35;;;;;;;20.92;3.95;;;3.00;99.90;;;;;;6158556;23;20024;-85
2022/01/06 07:25:01;;;;;;;26.27;4.43;;;2.90;99.90;;;;;;6142749;23;20025;-86
2022/01/06 07:27:27;;;;;;;35.58;6.13;;;2.90;99.90;;;;;;6145519;23;20021;-85
2022/01/06 07:29:53;;;;;;;26.77;4.68;;;2.90;99.90;;;;;;6171494;23;20028;-85
2022/01/06 07:32:19;;;;;;;22.77;4.10;;;2.90;99.90;;;;;;6186219;23;20017;-85
2022/01/06 07:34:44;;;;;;;25.70;3.85;;;2.80;99.90;;;;;;6184302;23;20033;-85
2022/01/06 07:37:10;;;;;;;28.00;4.15;;;2.80;99.90;;;;;;6133606;23;20024;-85
2022/01/06 07:39:36;;;;;;;24.67;3.70;;;2.80;99.90;;;;;;6182837;23;20035;-85
2022/01/06 07:42:03;;;;;;;28.08;5.55;;;2.70;99.90;;;;;;6163243;23;20060;-86
2022/01/06 07:44:29;;;;;;;18.92;4.13;;;2.70;99.90;;;;;;6183629;23;20348;-85
2022/01/06 07:47:03;;;;;;;22.63;4.22;;;2.60;99.90;;;;;;6157943;23;20021;-85
2022/01/06 07:49:29;;;;;;;20.15;3.80;;;2.50;99.90;;;;;;6157773;23;20029;-84
2022/01/06 07:51:55;;;;;;;24.08;4.20;;;2.50;99.90;;;;;;6182380;23;20035;-85
2022/01/06 07:54:22;;;;;;;40.20;7.47;;;2.40;99.90;;;;;;6156392;23;20029;-85
2022/01/06 07:56:53;;;;;;;29.40;5.03;;;2.40;99.90;;;;;;6156996;23;20025;-85
2022/01/06 07:59:19;;;;;;;26.45;4.25;;;2.30;99.90;;;;;;6157349;23;20056;-84
2022/01/06 08:01:45;;;;;;;24.90;4.72;;;2.20;99.90;;;;;;6184253;23;20029;-85
2022/01/06 08:04:10;;;;;;;29.27;3.97;;;2.20;99.90;;;;;;6157417;23;20036;-84
2022/01/06 08:06:36;;;;;;;23.58;4.82;;;2.10;99.90;;;;;;6128210;23;20018;-84
2022/01/06 08:09:02;;;;;;;23.40;3.75;;;2.10;99.90;;;;;;6129583;23;20052;-84
2022/01/06 08:11:28;;;;;;;20.70;4.43;;;2.00;99.90;;;;;;6154969;23;20021;-86
2022/01/06 08:13:54;;;;;;;32.72;6.25;;;2.00;99.90;;;;;;6133961;23;20017;-86
2022/01/06 08:16:20;;;;;;;19.48;5.35;;;2.00;99.90;;;;;;6130612;23;20033;-85
2022/01/06 08:18:46;;;;;;;36.63;4.60;;;2.00;99.90;;;;;;6104466;23;20018;-85
2022/01/06 08:21:12;;;;;;;23.92;4.07;;;2.00;99.90;;;;;;6160849;23;20081;-86
2022/01/06 08:23:38;;;;;;;35.25;5.30;;;1.90;99.90;;;;;;6162228;23;20021;-85
2022/01/06 08:26:03;;;;;;;31.35;6.60;;;1.90;99.90;;;;;;6132935;23;20025;-86
2022/01/06 08:28:29;;;;;;;29.40;5.25;;;1.80;99.90;;;;;;6153714;23;20056;-85
2022/01/06 08:30:56;;;;;;;26.20;4.30;;;1.90;99.90;;;;;;6129138;23;20750;-85
2022/01/06 08:33:22;;;;;;;29.58;5.30;;;1.90;99.90;;;;;;6128648;23;20366;-84
2022/01/06 08:35:48;;;;;;;29.83;5.63;;;1.90;99.90;;;;;;6128766;23;20096;-84
2022/01/06 08:38:14;;;;;;;36.20;5.40;;;1.80;99.90;;;;;;6152113;23;20465;-85
2022/01/06 08:40:40;;;;;;;27.50;4.80;;;2.00;99.90;;;;;;6159450;23;20087;-85
2022/01/06 08:43:06;;;;;;;17.98;4.93;;;2.00;99.90;;;;;;6134328;23;20029;-85
2022/01/06 08:45:32;;;;;;;36.17;4.43;;;2.10;99.90;;;;;;6159111;23;20031;-84
2022/01/06 08:47:58;;;;;;;28.38;5.28;;;2.10;99.90;;;;;;6186321;23;20021;-85
2022/01/06 08:50:24;;;;;;;19.45;3.88;;;2.20;99.90;;;;;;6187077;23;20048;-85
2022/01/06 08:52:53;;;;;;;24.55;5.15;;;2.20;99.90;;;;;;6140560;23;20021;-86
2022/01/06 08:55:18;;;;;;;30.90;4.38;;;2.30;99.90;;;;;;6189021;23;20337;-86
2022/01/06 08:57:44;;;;;;;17.88;4.40;;;2.40;99.90;;;;;;6134575;23;20060;-86
2022/01/06 09:00:11;;;;;;;27.27;5.13;;;2.40;99.90;;;;;;6184367;23;20078;-86
2022/01/06 09:02:40;;;;;;;19.85;3.65;;;2.50;99.90;;;;;;6158396;23;20052;-85
2022/01/06 09:05:06;;;;;;;22.75;4.70;;;2.60;99.90;;;;;;6160682;23;20465;-85
2022/01/06 09:07:37;;;;;;;14.63;4.15;;;2.80;99.90;;;;;;6193031;23;20399;-82
2022/01/06 09:10:11;;;;;;;31.08;4.95;;;2.90;99.90;;;;;;6193598;23;20025;-85
2022/01/06 09:12:42;;;;;;;16.73;5.80;;;3.10;99.90;;;;;;6136186;23;20025;-85
2022/01/06 09:15:11;;;;;;;21.95;3.72;;;3.30;99.90;;;;;;6160560;23;20120;-85
2022/01/06 09:17:38;;;;;;;20.02;3.40;;;3.40;99.90;;;;;;6136490;23;20470;-85
2022/01/06 09:20:05;;;;;;;25.88;4.35;;;3.60;99.90;;;;;;6191010;23;20090;-87
2022/01/06 09:22:31;;;;;;;30.50;3.70;;;3.60;99.90;;;;;;6160831;23;20033;-86
2022/01/06 09:24:57;;;;;;;27.25;5.32;;;3.60;99.90;;;;;;6184327;23;20052;-85
2022/01/06 09:27:23;;;;;;;22.55;3.90;;;3.70;99.90;;;;;;6160334;23;20464;-85
2022/01/06 09:29:52;;;;;;;24.35;3.10;;;3.70;99.90;;;;;;6160453;23;20096;-85
2022/01/06 09:32:19;;;;;;;22.45;3.65;;;3.80;99.90;;;;;;6185011;23;20060;-85
2022/01/06 09:34:45;;;;;;;24.63;3.42;;;3.90;99.90;;;;;;6184721;23;20028;-85
2022/01/06 09:37:13;;;;;;;18.38;3.08;;;4.00;99.90;;;;;;6184622;23;20025;-85
2022/01/06 09:39:42;;;;;;;19.33;3.25;;;4.10;99.90;;;;;;6161597;23;20021;-87
2022/01/06 09:42:09;;;;;;;20.35;5.03;;;4.20;99.90;;;;;;6186998;23;20021;-87
2022/01/06 09:44:37;;;;;;;23.27;4.03;;;4.30;99.90;;;;;;6185582;23;20488;-85
2022/01/06 09:47:04;;;;;;;19.58;3.10;;;4.50;99.90;;;;;;6186667;23;20021;-85
2022/01/06 09:49:31;;;;;;;32.83;3.15;;;4.70;99.90;;;;;;6187080;23;20021;-84
2022/01/06 09:51:57;;;;;;;29.02;4.47;;;4.90;99.90;;;;;;6186048;23;20075;-86
2022/01/06 09:54:23;;;;;;;14.23;4.30;;;4.90;99.90;;;;;;6159520;23;20017;-86
2022/01/06 09:56:48;;;;;;;25.27;3.30;;;4.90;99.90;;;;;;6186740;23;20105;-85
2022/01/06 09:59:14;;;;;;;16.40;2.78;;;4.90;99.90;;;;;;6159446;23;20025;-85
2022/01/06 10:01:41;;;;;;;26.35;3.67;;;4.80;99.90;;;;;;6134498;23;20017;-85
2022/01/06 10:04:17;;;;;;;19.63;3.78;;;4.70;99.90;;;;;;6134781;23;20056;-84
2022/01/06 10:06:42;;;;;;;21.05;3.15;;;4.60;99.90;;;;;;6160111;23;20028;-85
2022/01/06 10:09:08;;;;;;;17.08;2.85;;;4.50;99.90;;;;;;6135109;23;20021;-84
2022/01/06 10:11:35;;;;;;;34.00;5.20;;;4.50;99.90;;;;;;6186353;23;20480;-86
2022/01/06 10:14:10;;;;;;;16.88;3.20;;;4.50;99.90;;;;;;6183807;23;20083;-86
2022/01/06 10:16:39;;;;;;;19.30;2.88;;;4.50;99.90;;;;;;6183924;23;20048;-85
2022/01/06 10:19:10;;;;;;;19.52;2.92;;;4.60;99.90;;;;;;6134674;23;20025;-85
2022/01/06 10:21:42;;;;;;;21.10;2.70;;;4.60;99.90;;;;;;6183450;23;20025;-85
2022/01/06 10:24:27;;;;;;;15.63;2.65;;;4.70;99.90;;;;;;6183662;23;20024;-86
2022/01/06 10:27:07;;;;;;;18.75;3.40;;;4.70;99.90;;;;;;6158833;23;20029;-86
2022/01/06 10:29:36;;;;;;;13.23;2.28;;;4.90;99.90;;;;;;6158021;23;20456;-86
2022/01/06 10:32:07;;;;;;;12.65;2.85;;;5.30;99.90;;;;;;6162131;23;20029;-85
2022/01/06 10:34:36;;;;;;;18.70;3.35;;;5.70;99.90;;;;;;6160748;23;20040;-86
2022/01/06 10:37:05;;;;;;;17.25;2.88;;;6.40;99.90;;;;;;6133633;23;20021;-86
2022/01/06 10:39:45;;;;;;;19.15;2.97;;;7.10;99.90;;;;;;6134856;23;20503;-85
2022/01/06 10:42:12;;;;;;;15.15;2.90;;;7.50;99.90;;;;;;6183803;23;20361;-85
2022/01/06 10:44:51;;;;;;;20.27;3.67;;;7.40;99.90;;;;;;6185006;23;20334;-85
2022/01/06 10:47:30;;;;;;;15.88;2.97;;;7.10;99.90;;;;;;6158923;23;20079;-87
2022/01/06 10:50:09;;;;;;;22.45;3.30;;;7.10;99.90;;;;;;6158315;23;20021;-86
2022/01/06 10:52:40;;;;;;;25.95;4.45;;;7.30;99.90;;;;;;6158919;23;20353;-85
2022/01/06 10:55:13;;;;;;;19.17;3.42;;;7.70;99.90;;;;;;6158652;23;20025;-85
2022/01/06 10:58:09;;;;;;;15.82;3.08;;;7.90;99.90;;;;;;6158485;23;20025;-86
2022/01/06 11:01:02;;;;;;;20.95;3.70;;;7.80;99.90;;;;;;6075463;23;20030;-86
2022/01/06 11:03:32;;;;;;;15.80;4.13;;;7.50;99.90;;;;;;6072642;23;20030;-86
2022/01/06 11:06:00;;;;;;;19.63;3.70;;;7.20;99.90;;;;;;6053650;23;20391;-84
2022/01/06 11:08:31;;;;;;;13.40;3.08;;;7.00;99.90;;;;;;6098905;23;20022;-86
2022/01/06 11:13:33;;;;;;;14.60;3.60;;;7.20;99.90;;;;;;6069824;23;20033;-82
2022/01/06 11:16:00;;;;;;;12.80;3.22;;;7.60;99.90;;;;;;6093364;23;20034;-83
2022/01/06 11:18:27;;;;;;;20.05;2.88;;;7.60;99.90;;;;;;6093180;23;20038;-83
2022/01/06 11:21:03;;;;;;;15.15;3.08;;;7.30;99.90;;;;;;6069485;23;20030;-84
2022/01/06 11:23:31;;;;;;;19.60;3.25;;;7.10;99.90;;;;;;6069627;23;20404;-83
2022/01/06 11:26:26;;;;;;;18.27;3.33;;;7.10;99.90;;;;;;6045685;23;20030;-85
2022/01/06 11:29:00;;;;;;;22.60;5.15;;;7.50;99.90;;;;;;6053014;23;20029;-83
2022/01/06 11:31:29;;;;;;;18.10;3.33;;;7.70;99.90;;;;;;6096490;23;20028;-84
2022/01/06 11:33:58;;;;;;;13.88;3.80;;;7.70;99.90;;;;;;6128407;23;20034;-83
2022/01/06 11:36:31;;;;;;;17.67;2.92;;;7.60;99.90;;;;;;6103819;23;20529;-84
2022/01/06 11:38:59;;;;;;;14.30;3.67;;;7.90;99.90;;;;;;6104303;23;20100;-84
2022/01/06 11:41:37;;;;;;;13.98;3.30;;;8.60;99.90;;;;;;6128565;23;20499;-84
2022/01/06 11:44:35;;;;;;;18.40;3.42;;;8.80;99.90;;;;;;6153486;23;20056;-84
2022/01/06 11:47:03;;;;;;;19.67;4.00;;;8.30;99.90;;;;;;6127735;23;20033;-85
2022/01/06 11:49:35;;;;;;;25.85;4.75;;;7.90;99.90;;;;;;6154730;23;20737;-83
2022/01/06 11:52:15;;;;;;;21.73;3.95;;;7.90;99.90;;;;;;6153322;23;20430;-84
2022/01/06 11:54:59;;;;;;;19.55;3.55;;;8.00;99.90;;;;;;6130124;23;20112;-84
2022/01/06 11:57:37;;;;;;;19.88;3.70;;;8.50;99.90;;;;;;6132940;23;20084;-85
2022/01/06 12:00:24;;;;;;;19.48;3.30;;;8.90;99.90;;;;;;6129532;23;20096;-84
2022/01/06 12:03:03;;;;;;;18.35;3.08;;;9.20;99.90;;;;;;6152696;23;20345;-83
2022/01/06 12:05:52;;;;;;;24.13;4.43;;;9.60;99.90;;;;;;6127993;23;20744;-83
2022/01/06 12:08:20;;;;;;;24.40;5.07;;;9.60;99.90;;;;;;6154238;23;20021;-85
2022/01/06 12:10:49;;;;;;;13.52;3.03;;;9.60;99.90;;;;;;6127814;23;20084;-85
2022/01/06 12:13:16;;;;;;;14.27;2.78;;;9.70;99.90;;;;;;6151750;23;20443;-84
2022/01/06 12:15:55;;;;;;;17.35;4.07;;;10.10;99.90;;;;;;6152797;23;20022;-85
2022/01/06 12:18:32;;;;;;;12.05;2.60;;;10.50;99.90;;;;;;6151999;23;20053;-85
2022/01/06 12:20:58;;;;;;;15.93;2.97;;;11.20;99.80;;;;;;6152673;23;20104;-85
2022/01/06 12:23:25;;;;;;;16.58;3.05;;;11.80;98.60;;;;;;6130280;23;20036;-85
2022/01/06 12:26:00;;;;;;;14.57;2.83;;;12.30;97.10;;;;;;6163824;23;20031;-85
2022/01/06 12:28:27;;;;;;;15.43;2.67;;;13.10;94.20;;;;;;6163053;23;20469;-85
2022/01/06 12:31:05;;;;;;;12.00;2.50;;;13.50;91.50;;;;;;6157056;23;20353;-86
2022/01/06 12:33:41;;;;;;;15.00;2.53;;;13.20;85.80;;;;;;6132750;23;20084;-83
2022/01/06 12:36:06;;;;;;;10.95;2.60;;;12.90;92.00;;;;;;6157953;23;20087;-83
2022/01/06 12:38:37;;;;;;;15.60;3.78;;;12.10;93.20;;;;;;6182659;23;20469;-83
2022/01/06 12:41:03;;;;;;;13.57;3.42;;;11.90;95.00;;;;;;6133544;23;20017;-83
2022/01/06 12:43:31;;;;;;;22.25;4.30;;;12.40;95.00;;;;;;6157598;23;20025;-84
2022/01/06 12:46:12;;;;;;;11.60;2.80;;;13.00;93.50;;;;;;6157937;23;20024;-83
2022/01/06 12:48:43;;;;;;;15.45;2.63;;;13.80;87.00;;;;;;6183627;23;20085;-84
2022/01/06 12:51:13;;;;;;;16.20;3.75;;;14.50;90.60;;;;;;6184619;23;20025;-85
2022/01/06 12:53:42;;;;;;;13.98;2.33;;;14.90;80.00;;;;;;6109610;23;20335;-85
2022/01/06 12:56:08;;;;;;;16.98;3.92;;;15.20;78.70;;;;;;6159516;23;20029;-85
2022/01/06 12:58:37;;;;;;;14.18;2.70;;;15.30;75.70;;;;;;6159237;23;20326;-84
2022/01/06 13:01:05;;;;;;;10.30;2.42;;;15.40;70.30;;;;;;6185800;23;20021;-84
2022/01/06 13:03:37;;;;;;;14.00;2.53;;;15.40;69.30;;;;;;6185955;23;20357;-85